sensor_id;sensor_type;location;lat;lon;timestamp;pressure;altitude;pressure_sealevel;temperature;humidity
44453;BME280;30155;52.164;21.236;2023-05-19T00:00:42;101670.98;;;10.54;77.87
44453;BME280;30155;52.164;21.236;2023-05-19T00:05:41;101668.34;;;10.53;77.98
44453;BME280;30155;52.164;21.236;2023-05-19T00:10:37;101668.77;;;10.50;78.10
44453;BME280;30155;52.164;21.236;2023-05-19T00:15:30;101674.74;;;10.48;77.91
44453;BME280;30155;52.164;21.236;2023-05-19T00:20:24;101667.92;;;10.46;77.70
44453;BME280;30155;52.164;21.236;2023-05-19T00:25:18;101666.54;;;10.46;77.79
44453;BME280;30155;52.164;21.236;2023-05-19T00:30:12;101662.02;;;10.46;77.84
44453;BME280;30155;52.164;21.236;2023-05-19T00:35:05;101661.85;;;10.46;77.58
44453;BME280;30155;52.164;21.236;2023-05-19T00:39:58;101660.82;;;10.46;77.59
44453;BME280;30155;52.164;21.236;2023-05-19T00:44:51;101662.66;;;10.44;77.30
44453;BME280;30155;52.164;21.236;2023-05-19T00:49:44;101658.40;;;10.41;77.07
44453;BME280;30155;52.164;21.236;2023-05-19T00:54:37;101656.99;;;10.40;77.36
44453;BME280;30155;52.164;21.236;2023-05-19T00:59:30;101653.70;;;10.41;77.53
44453;BME280;30155;52.164;21.236;2023-05-19T01:04:24;101648.33;;;10.41;77.33
44453;BME280;30155;52.164;21.236;2023-05-19T01:09:17;101649.89;;;10.40;77.35
44453;BME280;30155;52.164;21.236;2023-05-19T01:14:10;101647.40;;;10.38;77.29
44453;BME280;30155;52.164;21.236;2023-05-19T01:24:46;101643.68;;;10.36;77.38
44453;BME280;30155;52.164;21.236;2023-05-19T01:35:01;101637.53;;;10.34;77.64
44453;BME280;30155;52.164;21.236;2023-05-19T01:39:56;101642.79;;;10.30;77.59
44453;BME280;30155;52.164;21.236;2023-05-19T01:44:50;101637.40;;;10.30;77.77
44453;BME280;30155;52.164;21.236;2023-05-19T01:49:43;101631.13;;;10.29;77.93
44453;BME280;30155;52.164;21.236;2023-05-19T01:54:36;101636.25;;;10.27;77.86
44453;BME280;30155;52.164;21.236;2023-05-19T02:05:01;101631.63;;;10.23;78.30
44453;BME280;30155;52.164;21.236;2023-05-19T02:10:09;101626.56;;;10.22;78.31
44453;BME280;30155;52.164;21.236;2023-05-19T02:19:58;101624.20;;;10.19;78.47
44453;BME280;30155;52.164;21.236;2023-05-19T02:24:51;101620.20;;;10.18;78.68
44453;BME280;30155;52.164;21.236;2023-05-19T02:29:43;101616.17;;;10.17;78.72
44453;BME280;30155;52.164;21.236;2023-05-19T02:34:36;101618.73;;;10.16;78.77
44453;BME280;30155;52.164;21.236;2023-05-19T02:39:29;101625.48;;;10.15;78.87
44453;BME280;30155;52.164;21.236;2023-05-19T02:44:26;101628.88;;;10.13;78.83
44453;BME280;30155;52.164;21.236;2023-05-19T02:49:20;101629.98;;;10.11;78.99
44453;BME280;30155;52.164;21.236;2023-05-19T02:54:13;101629.95;;;10.09;79.44
44453;BME280;30155;52.164;21.236;2023-05-19T02:59:06;101630.61;;;10.08;79.58
44453;BME280;30155;52.164;21.236;2023-05-19T03:03:59;101629.58;;;10.08;79.57
44453;BME280;30155;52.164;21.236;2023-05-19T03:08:53;101629.26;;;10.09;79.71
44453;BME280;30155;52.164;21.236;2023-05-19T03:13:45;101633.30;;;10.11;79.98
44453;BME280;30155;52.164;21.236;2023-05-19T03:18:40;101632.84;;;10.13;80.09
44453;BME280;30155;52.164;21.236;2023-05-19T03:23:33;101629.10;;;10.15;79.99
44453;BME280;30155;52.164;21.236;2023-05-19T03:28:27;101635.41;;;10.17;80.23
44453;BME280;30155;52.164;21.236;2023-05-19T03:33:20;101638.98;;;10.20;80.32
44453;BME280;30155;52.164;21.236;2023-05-19T03:38:15;101636.83;;;10.23;80.15
44453;BME280;30155;52.164;21.236;2023-05-19T03:43:16;101632.07;;;10.26;80.25
44453;BME280;30155;52.164;21.236;2023-05-19T03:48:15;101631.55;;;10.31;80.25
44453;BME280;30155;52.164;21.236;2023-05-19T03:53:31;101631.49;;;10.35;80.18
44453;BME280;30155;52.164;21.236;2023-05-19T03:58:24;101633.99;;;10.36;80.43
44453;BME280;30155;52.164;21.236;2023-05-19T04:03:17;101627.57;;;10.36;80.39
44453;BME280;30155;52.164;21.236;2023-05-19T04:08:11;101630.34;;;10.36;80.28
44453;BME280;30155;52.164;21.236;2023-05-19T04:13:04;101629.26;;;10.40;80.35
44453;BME280;30155;52.164;21.236;2023-05-19T04:17:57;101626.05;;;10.43;80.34
44453;BME280;30155;52.164;21.236;2023-05-19T04:22:50;101624.55;;;10.44;80.33
44453;BME280;30155;52.164;21.236;2023-05-19T04:27:43;101629.15;;;10.47;80.38
44453;BME280;30155;52.164;21.236;2023-05-19T04:32:36;101628.25;;;10.52;80.27
44453;BME280;30155;52.164;21.236;2023-05-19T04:37:30;101625.62;;;10.56;80.17
44453;BME280;30155;52.164;21.236;2023-05-19T04:42:24;101627.77;;;10.64;80.34
44453;BME280;30155;52.164;21.236;2023-05-19T04:47:23;101630.97;;;10.72;80.20
44453;BME280;30155;52.164;21.236;2023-05-19T04:52:19;101626.16;;;10.80;80.06
44453;BME280;30155;52.164;21.236;2023-05-19T04:57:13;101625.39;;;10.83;80.02
44453;BME280;30155;52.164;21.236;2023-05-19T05:02:06;101628.86;;;10.83;79.85
44453;BME280;30155;52.164;21.236;2023-05-19T05:07:00;101634.15;;;10.86;80.30
44453;BME280;30155;52.164;21.236;2023-05-19T05:11:54;101632.38;;;10.84;80.06
44453;BME280;30155;52.164;21.236;2023-05-19T05:16:48;101637.10;;;10.86;79.93
44453;BME280;30155;52.164;21.236;2023-05-19T05:21:45;101632.64;;;10.87;79.84
44453;BME280;30155;52.164;21.236;2023-05-19T05:26:39;101632.43;;;10.92;79.81
44453;BME280;30155;52.164;21.236;2023-05-19T05:31:33;101628.69;;;11.00;79.82
44453;BME280;30155;52.164;21.236;2023-05-19T05:36:28;101628.62;;;11.10;79.60
44453;BME280;30155;52.164;21.236;2023-05-19T05:41:23;101629.39;;;11.18;79.51
44453;BME280;30155;52.164;21.236;2023-05-19T05:46:18;101634.19;;;11.28;79.30
44453;BME280;30155;52.164;21.236;2023-05-19T05:51:11;101634.16;;;11.33;79.00
44453;BME280;30155;52.164;21.236;2023-05-19T05:56:06;101637.49;;;11.40;78.89
44453;BME280;30155;52.164;21.236;2023-05-19T06:01:05;101632.70;;;11.56;78.66
44453;BME280;30155;52.164;21.236;2023-05-19T06:06:02;101635.14;;;11.75;78.46
44453;BME280;30155;52.164;21.236;2023-05-19T06:10:55;101632.85;;;11.93;78.06
44453;BME280;30155;52.164;21.236;2023-05-19T06:15:50;101633.61;;;11.96;77.68
44453;BME280;30155;52.164;21.236;2023-05-19T06:20:48;101636.10;;;11.86;77.85
44453;BME280;30155;52.164;21.236;2023-05-19T06:25:41;101636.77;;;11.78;77.92
44453;BME280;30155;52.164;21.236;2023-05-19T06:30:35;101636.45;;;11.72;77.91
44453;BME280;30155;52.164;21.236;2023-05-19T06:36:00;101637.31;;;11.72;78.22
44453;BME280;30155;52.164;21.236;2023-05-19T06:40:54;101635.79;;;11.80;78.20
44453;BME280;30155;52.164;21.236;2023-05-19T06:45:47;101633.28;;;11.84;78.03
44453;BME280;30155;52.164;21.236;2023-05-19T06:50:40;101633.05;;;11.94;77.77
44453;BME280;30155;52.164;21.236;2023-05-19T06:55:33;101637.24;;;12.01;77.42
44453;BME280;30155;52.164;21.236;2023-05-19T07:00:42;101638.06;;;12.06;77.21
44453;BME280;30155;52.164;21.236;2023-05-19T07:05:37;101636.38;;;12.08;77.03
44453;BME280;30155;52.164;21.236;2023-05-19T07:10:29;101634.91;;;12.06;76.86
44453;BME280;30155;52.164;21.236;2023-05-19T07:15:23;101634.98;;;12.02;76.97
44453;BME280;30155;52.164;21.236;2023-05-19T07:20:17;101632.83;;;12.06;77.17
44453;BME280;30155;52.164;21.236;2023-05-19T07:25:10;101635.30;;;12.07;76.92
44453;BME280;30155;52.164;21.236;2023-05-19T07:30:04;101634.45;;;12.08;76.71
44453;BME280;30155;52.164;21.236;2023-05-19T07:34:57;101633.14;;;12.11;76.58
44453;BME280;30155;52.164;21.236;2023-05-19T07:39:50;101634.79;;;12.14;76.62
44453;BME280;30155;52.164;21.236;2023-05-19T07:44:43;101630.70;;;12.17;76.68
44453;BME280;30155;52.164;21.236;2023-05-19T07:49:36;101625.15;;;12.25;76.66
44453;BME280;30155;52.164;21.236;2023-05-19T07:54:28;101628.19;;;12.36;76.14
44453;BME280;30155;52.164;21.236;2023-05-19T07:59:22;101623.06;;;12.47;75.70
44453;BME280;30155;52.164;21.236;2023-05-19T08:04:15;101623.56;;;12.61;75.70
44453;BME280;30155;52.164;21.236;2023-05-19T08:09:08;101622.43;;;12.65;75.51
44453;BME280;30155;52.164;21.236;2023-05-19T08:14:01;101621.37;;;12.64;75.37
44453;BME280;30155;52.164;21.236;2023-05-19T08:18:54;101617.08;;;12.74;75.21
44453;BME280;30155;52.164;21.236;2023-05-19T08:23:47;101612.83;;;12.86;74.71
44453;BME280;30155;52.164;21.236;2023-05-19T08:28:40;101613.29;;;13.00;74.40
44453;BME280;30155;52.164;21.236;2023-05-19T08:33:33;101616.52;;;13.21;73.92
44453;BME280;30155;52.164;21.236;2023-05-19T08:38:26;101616.42;;;13.25;73.88
44453;BME280;30155;52.164;21.236;2023-05-19T08:43:19;101620.61;;;13.25;73.68
44453;BME280;30155;52.164;21.236;2023-05-19T08:48:13;101625.25;;;13.22;73.50
44453;BME280;30155;52.164;21.236;2023-05-19T08:53:18;101624.82;;;13.27;73.55
44453;BME280;30155;52.164;21.236;2023-05-19T08:58:25;101626.58;;;13.35;73.31
44453;BME280;30155;52.164;21.236;2023-05-19T09:03:19;101626.56;;;13.52;73.16
44453;BME280;30155;52.164;21.236;2023-05-19T09:08:14;101628.41;;;13.66;73.04
44453;BME280;30155;52.164;21.236;2023-05-19T09:13:08;101623.14;;;13.64;72.89
44453;BME280;30155;52.164;21.236;2023-05-19T09:18:06;101622.54;;;13.69;72.85
44453;BME280;30155;52.164;21.236;2023-05-19T09:23:00;101622.02;;;13.69;72.86
44453;BME280;30155;52.164;21.236;2023-05-19T09:27:54;101621.50;;;13.69;72.81
44453;BME280;30155;52.164;21.236;2023-05-19T09:32:47;101621.27;;;13.67;72.45
44453;BME280;30155;52.164;21.236;2023-05-19T09:37:40;101620.81;;;13.61;72.08
44453;BME280;30155;52.164;21.236;2023-05-19T09:42:36;101619.53;;;13.58;72.29
44453;BME280;30155;52.164;21.236;2023-05-19T09:47:36;101620.23;;;13.58;72.25
44453;BME280;30155;52.164;21.236;2023-05-19T09:52:29;101626.63;;;13.64;72.28
44453;BME280;30155;52.164;21.236;2023-05-19T09:57:25;101623.18;;;13.76;72.21
44453;BME280;30155;52.164;21.236;2023-05-19T10:02:19;101619.71;;;13.96;71.96
44453;BME280;30155;52.164;21.236;2023-05-19T10:07:15;101619.34;;;14.16;71.48
44453;BME280;30155;52.164;21.236;2023-05-19T10:12:11;101620.30;;;14.32;71.70
44453;BME280;30155;52.164;21.236;2023-05-19T10:17:06;101618.72;;;14.32;71.17
44453;BME280;30155;52.164;21.236;2023-05-19T10:21:59;101613.34;;;14.33;71.13
44453;BME280;30155;52.164;21.236;2023-05-19T10:27:01;101610.52;;;14.42;71.12
44453;BME280;30155;52.164;21.236;2023-05-19T10:31:59;101606.93;;;14.47;70.57
44453;BME280;30155;52.164;21.236;2023-05-19T10:37:05;101602.70;;;14.56;70.52
44453;BME280;30155;52.164;21.236;2023-05-19T10:42:28;101603.52;;;14.62;70.39
44453;BME280;30155;52.164;21.236;2023-05-19T10:47:25;101605.48;;;14.55;70.44
44453;BME280;30155;52.164;21.236;2023-05-19T10:52:20;101603.49;;;14.60;70.09
44453;BME280;30155;52.164;21.236;2023-05-19T10:57:19;101598.25;;;14.71;70.15
44453;BME280;30155;52.164;21.236;2023-05-19T11:02:40;101598.78;;;14.72;70.17
44453;BME280;30155;52.164;21.236;2023-05-19T11:07:35;101601.23;;;14.72;70.09
44453;BME280;30155;52.164;21.236;2023-05-19T11:12:41;101603.88;;;14.75;69.82
44453;BME280;30155;52.164;21.236;2023-05-19T11:17:35;101602.34;;;14.77;69.99
44453;BME280;30155;52.164;21.236;2023-05-19T11:22:28;101602.40;;;14.81;69.80
44453;BME280;30155;52.164;21.236;2023-05-19T11:27:37;101603.20;;;14.89;69.73
44453;BME280;30155;52.164;21.236;2023-05-19T11:32:32;101606.06;;;15.09;69.54
44453;BME280;30155;52.164;21.236;2023-05-19T11:37:26;101607.36;;;15.15;69.29
44453;BME280;30155;52.164;21.236;2023-05-19T11:42:20;101604.39;;;15.28;69.14
44453;BME280;30155;52.164;21.236;2023-05-19T11:47:14;101602.00;;;15.50;68.98
44453;BME280;30155;52.164;21.236;2023-05-19T11:52:07;101601.02;;;15.55;68.75
44453;BME280;30155;52.164;21.236;2023-05-19T11:57:01;101600.30;;;15.53;68.64
44453;BME280;30155;52.164;21.236;2023-05-19T12:01:54;101601.84;;;15.51;68.60
44453;BME280;30155;52.164;21.236;2023-05-19T12:06:50;101603.64;;;15.40;68.32
44453;BME280;30155;52.164;21.236;2023-05-19T12:11:43;101605.11;;;15.30;68.56
44453;BME280;30155;52.164;21.236;2023-05-19T12:16:38;101610.44;;;15.38;68.53
44453;BME280;30155;52.164;21.236;2023-05-19T12:21:33;101609.27;;;15.43;68.28
44453;BME280;30155;52.164;21.236;2023-05-19T12:26:26;101605.76;;;15.41;68.26
44453;BME280;30155;52.164;21.236;2023-05-19T12:31:20;101605.88;;;15.37;68.34
44453;BME280;30155;52.164;21.236;2023-05-19T12:36:14;101607.19;;;15.29;68.34
44453;BME280;30155;52.164;21.236;2023-05-19T12:41:10;101610.08;;;15.23;68.22
44453;BME280;30155;52.164;21.236;2023-05-19T12:46:10;101606.16;;;15.17;68.58
44453;BME280;30155;52.164;21.236;2023-05-19T12:51:04;101604.95;;;15.17;68.47
44453;BME280;30155;52.164;21.236;2023-05-19T12:55:58;101604.91;;;15.29;68.50
44453;BME280;30155;52.164;21.236;2023-05-19T13:00:57;101597.64;;;15.50;68.62
44453;BME280;30155;52.164;21.236;2023-05-19T13:05:51;101598.79;;;15.59;68.03
44453;BME280;30155;52.164;21.236;2023-05-19T13:10:45;101596.77;;;15.67;68.06
44453;BME280;30155;52.164;21.236;2023-05-19T13:15:42;101600.73;;;15.77;68.27
44453;BME280;30155;52.164;21.236;2023-05-19T13:20:36;101600.36;;;15.74;67.87
44453;BME280;30155;52.164;21.236;2023-05-19T13:25:34;101595.40;;;15.70;68.01
44453;BME280;30155;52.164;21.236;2023-05-19T13:30:27;101599.86;;;15.77;68.17
44453;BME280;30155;52.164;21.236;2023-05-19T13:35:20;101596.40;;;15.80;68.00
44453;BME280;30155;52.164;21.236;2023-05-19T13:40:14;101593.27;;;15.67;67.77
44453;BME280;30155;52.164;21.236;2023-05-19T13:45:08;101594.00;;;15.52;68.25
44453;BME280;30155;52.164;21.236;2023-05-19T13:50:02;101595.61;;;15.40;68.33
44453;BME280;30155;52.164;21.236;2023-05-19T13:54:56;101594.54;;;15.23;68.47
44453;BME280;30155;52.164;21.236;2023-05-19T13:59:49;101598.44;;;15.13;68.70
44453;BME280;30155;52.164;21.236;2023-05-19T14:05:02;101596.44;;;15.07;69.07
44453;BME280;30155;52.164;21.236;2023-05-19T14:09:56;101592.15;;;15.13;69.20
44453;BME280;30155;52.164;21.236;2023-05-19T14:14:48;101591.36;;;15.20;69.12
44453;BME280;30155;52.164;21.236;2023-05-19T14:19:42;101597.36;;;15.24;68.82
44453;BME280;30155;52.164;21.236;2023-05-19T14:24:35;101593.36;;;15.25;68.98
44453;BME280;30155;52.164;21.236;2023-05-19T14:29:28;101589.35;;;15.27;68.97
44453;BME280;30155;52.164;21.236;2023-05-19T14:34:21;101592.59;;;15.35;68.98
44453;BME280;30155;52.164;21.236;2023-05-19T14:39:14;101594.02;;;15.39;68.67
44453;BME280;30155;52.164;21.236;2023-05-19T14:44:07;101599.94;;;15.37;68.72
44453;BME280;30155;52.164;21.236;2023-05-19T14:49:00;101595.89;;;15.33;68.93
44453;BME280;30155;52.164;21.236;2023-05-19T14:53:53;101593.64;;;15.36;69.08
44453;BME280;30155;52.164;21.236;2023-05-19T14:58:46;101593.23;;;15.31;68.90
44453;BME280;30155;52.164;21.236;2023-05-19T15:03:39;101595.92;;;15.21;69.16
44453;BME280;30155;52.164;21.236;2023-05-19T15:08:32;101598.09;;;15.14;69.39
44453;BME280;30155;52.164;21.236;2023-05-19T15:13:25;101600.11;;;15.06;69.62
44453;BME280;30155;52.164;21.236;2023-05-19T15:18:18;101605.59;;;14.99;69.74
44453;BME280;30155;52.164;21.236;2023-05-19T15:23:11;101608.13;;;14.93;69.92
44453;BME280;30155;52.164;21.236;2023-05-19T15:28:04;101606.68;;;14.90;70.01
44453;BME280;30155;52.164;21.236;2023-05-19T15:32:57;101600.77;;;14.91;70.24
44453;BME280;30155;52.164;21.236;2023-05-19T15:37:50;101599.77;;;14.94;70.36
44453;BME280;30155;52.164;21.236;2023-05-19T15:42:43;101602.05;;;14.95;70.40
44453;BME280;30155;52.164;21.236;2023-05-19T15:47:36;101596.44;;;14.93;70.53
44453;BME280;30155;52.164;21.236;2023-05-19T15:52:29;101591.33;;;14.88;70.41
44453;BME280;30155;52.164;21.236;2023-05-19T15:57:22;101590.40;;;14.85;70.62
44453;BME280;30155;52.164;21.236;2023-05-19T16:02:14;101583.55;;;14.82;71.09
44453;BME280;30155;52.164;21.236;2023-05-19T16:07:08;101582.99;;;14.79;71.19
44453;BME280;30155;52.164;21.236;2023-05-19T16:12:00;101582.43;;;14.76;71.54
44453;BME280;30155;52.164;21.236;2023-05-19T16:16:53;101578.84;;;14.69;71.57
44453;BME280;30155;52.164;21.236;2023-05-19T16:21:47;101580.86;;;14.64;71.57
44453;BME280;30155;52.164;21.236;2023-05-19T16:26:40;101582.73;;;14.61;71.58
44453;BME280;30155;52.164;21.236;2023-05-19T16:31:33;101581.83;;;14.59;71.79
44453;BME280;30155;52.164;21.236;2023-05-19T16:36:25;101581.58;;;14.55;71.96
44453;BME280;30155;52.164;21.236;2023-05-19T16:41:18;101582.08;;;14.53;72.20
44453;BME280;30155;52.164;21.236;2023-05-19T16:46:12;101583.92;;;14.48;72.46
44453;BME280;30155;52.164;21.236;2023-05-19T16:51:05;101583.00;;;14.45;72.70
44453;BME280;30155;52.164;21.236;2023-05-19T16:55:57;101583.29;;;14.40;73.17
44453;BME280;30155;52.164;21.236;2023-05-19T17:00:51;101583.23;;;14.36;73.62
44453;BME280;30155;52.164;21.236;2023-05-19T17:05:44;101580.69;;;14.30;73.88
44453;BME280;30155;52.164;21.236;2023-05-19T17:10:37;101583.57;;;14.25;73.97
44453;BME280;30155;52.164;21.236;2023-05-19T17:15:30;101581.41;;;14.20;74.34
44453;BME280;30155;52.164;21.236;2023-05-19T17:20:23;101578.36;;;14.15;74.74
44453;BME280;30155;52.164;21.236;2023-05-19T17:25:16;101578.64;;;14.11;75.20
44453;BME280;30155;52.164;21.236;2023-05-19T17:30:09;101581.67;;;14.04;75.15
44453;BME280;30155;52.164;21.236;2023-05-19T17:35:03;101576.33;;;13.98;75.22
44453;BME280;30155;52.164;21.236;2023-05-19T17:39:57;101578.31;;;13.91;75.46
44453;BME280;30155;52.164;21.236;2023-05-19T17:44:49;101578.96;;;13.88;75.79
44453;BME280;30155;52.164;21.236;2023-05-19T17:49:43;101582.05;;;13.86;76.35
44453;BME280;30155;52.164;21.236;2023-05-19T17:54:36;101585.33;;;13.83;76.56
44453;BME280;30155;52.164;21.236;2023-05-19T17:59:29;101588.60;;;13.82;76.72
44453;BME280;30155;52.164;21.236;2023-05-19T18:04:23;101587.33;;;13.79;76.87
44453;BME280;30155;52.164;21.236;2023-05-19T18:09:18;101588.34;;;13.77;76.96
44453;BME280;30155;52.164;21.236;2023-05-19T18:14:11;101588.65;;;13.74;77.32
44453;BME280;30155;52.164;21.236;2023-05-19T18:19:04;101587.05;;;13.72;77.58
44453;BME280;30155;52.164;21.236;2023-05-19T18:23:57;101585.76;;;13.68;77.68
44453;BME280;30155;52.164;21.236;2023-05-19T18:28:53;101584.94;;;13.61;78.12
44453;BME280;30155;52.164;21.236;2023-05-19T18:33:46;101587.64;;;13.56;78.03
44453;BME280;30155;52.164;21.236;2023-05-19T18:38:40;101596.48;;;13.55;78.21
44453;BME280;30155;52.164;21.236;2023-05-19T18:43:33;101603.77;;;13.53;78.39
44453;BME280;30155;52.164;21.236;2023-05-19T18:48:25;101610.35;;;13.51;78.56
44453;BME280;30155;52.164;21.236;2023-05-19T18:53:20;101619.16;;;13.47;78.71
44453;BME280;30155;52.164;21.236;2023-05-19T18:58:13;101622.20;;;13.42;78.75
44453;BME280;30155;52.164;21.236;2023-05-19T19:03:06;101625.48;;;13.42;79.03
44453;BME280;30155;52.164;21.236;2023-05-19T19:08:01;101622.51;;;13.40;79.26
44453;BME280;30155;52.164;21.236;2023-05-19T19:12:56;101629.20;;;13.35;79.50
44453;BME280;30155;52.164;21.236;2023-05-19T19:17:48;101634.73;;;13.33;79.57
44453;BME280;30155;52.164;21.236;2023-05-19T19:22:41;101636.84;;;13.34;79.70
44453;BME280;30155;52.164;21.236;2023-05-19T19:27:34;101635.77;;;13.33;79.84
44453;BME280;30155;52.164;21.236;2023-05-19T19:32:27;101636.96;;;13.31;79.95
44453;BME280;30155;52.164;21.236;2023-05-19T19:37:22;101634.83;;;13.30;80.08
44453;BME280;30155;52.164;21.236;2023-05-19T19:42:14;101640.20;;;13.29;80.19
44453;BME280;30155;52.164;21.236;2023-05-19T19:47:07;101641.39;;;13.28;80.36
44453;BME280;30155;52.164;21.236;2023-05-19T19:52:00;101644.48;;;13.27;80.35
44453;BME280;30155;52.164;21.236;2023-05-19T19:56:53;101642.52;;;13.24;80.58
44453;BME280;30155;52.164;21.236;2023-05-19T20:01:46;101645.28;;;13.23;80.66
44453;BME280;30155;52.164;21.236;2023-05-19T20:06:39;101644.25;;;13.24;80.95
44453;BME280;30155;52.164;21.236;2023-05-19T20:11:32;101646.03;;;13.25;81.09
44453;BME280;30155;52.164;21.236;2023-05-19T20:16:25;101642.74;;;13.26;81.16
44453;BME280;30155;52.164;21.236;2023-05-19T20:21:18;101641.87;;;13.26;81.15
44453;BME280;30155;52.164;21.236;2023-05-19T20:26:11;101637.50;;;13.26;81.26
44453;BME280;30155;52.164;21.236;2023-05-19T20:31:04;101637.82;;;13.24;81.25
44453;BME280;30155;52.164;21.236;2023-05-19T20:35:57;101640.09;;;13.24;81.37
44453;BME280;30155;52.164;21.236;2023-05-19T20:40:50;101641.44;;;13.22;81.43
44453;BME280;30155;52.164;21.236;2023-05-19T20:45:43;101643.14;;;13.21;81.53
44453;BME280;30155;52.164;21.236;2023-05-19T20:50:37;101647.14;;;13.20;81.61
44453;BME280;30155;52.164;21.236;2023-05-19T20:55:30;101650.54;;;13.17;81.59
44453;BME280;30155;52.164;21.236;2023-05-19T21:00:24;101651.04;;;13.15;81.79
44453;BME280;30155;52.164;21.236;2023-05-19T21:05:20;101652.73;;;13.12;81.95
44453;BME280;30155;52.164;21.236;2023-05-19T21:10:13;101655.83;;;13.11;81.96
44453;BME280;30155;52.164;21.236;2023-05-19T21:15:08;101652.16;;;13.12;82.01
44453;BME280;30155;52.164;21.236;2023-05-19T21:20:02;101652.48;;;13.10;82.22
44453;BME280;30155;52.164;21.236;2023-05-19T21:24:55;101654.35;;;13.08;82.30
44453;BME280;30155;52.164;21.236;2023-05-19T21:29:52;101657.48;;;13.07;82.38
44453;BME280;30155;52.164;21.236;2023-05-19T21:34:45;101653.33;;;13.09;82.48
44453;BME280;30155;52.164;21.236;2023-05-19T21:39:38;101654.21;;;13.09;82.52
44453;BME280;30155;52.164;21.236;2023-05-19T21:44:31;101656.66;;;13.09;82.53
44453;BME280;30155;52.164;21.236;2023-05-19T21:49:24;101652.98;;;13.09;82.71
44453;BME280;30155;52.164;21.236;2023-05-19T21:54:17;101656.86;;;13.10;82.70
44453;BME280;30155;52.164;21.236;2023-05-19T21:59:10;101652.14;;;13.10;82.59
44453;BME280;30155;52.164;21.236;2023-05-19T22:04:03;101651.94;;;13.08;82.74
44453;BME280;30155;52.164;21.236;2023-05-19T22:08:56;101649.29;;;13.07;82.71
44453;BME280;30155;52.164;21.236;2023-05-19T22:13:51;101647.17;;;13.05;82.78
44453;BME280;30155;52.164;21.236;2023-05-19T22:18:45;101649.05;;;13.04;82.97
44453;BME280;30155;52.164;21.236;2023-05-19T22:23:38;101648.51;;;13.03;83.01
44453;BME280;30155;52.164;21.236;2023-05-19T22:28:31;101650.91;;;13.02;83.12
44453;BME280;30155;52.164;21.236;2023-05-19T22:33:24;101651.77;;;13.01;83.22
44453;BME280;30155;52.164;21.236;2023-05-19T22:38:17;101652.63;;;13.01;83.29
44453;BME280;30155;52.164;21.236;2023-05-19T22:43:10;101651.77;;;13.01;83.39
44453;BME280;30155;52.164;21.236;2023-05-19T22:48:03;101649.69;;;13.01;83.46
44453;BME280;30155;52.164;21.236;2023-05-19T22:52:56;101647.73;;;12.99;83.54
44453;BME280;30155;52.164;21.236;2023-05-19T22:57:49;101643.70;;;12.98;83.53
44453;BME280;30155;52.164;21.236;2023-05-19T23:02:43;101642.79;;;12.96;83.62
44453;BME280;30155;52.164;21.236;2023-05-19T23:07:36;101645.92;;;12.95;83.79
44453;BME280;30155;52.164;21.236;2023-05-19T23:12:29;101644.65;;;12.93;83.79
44453;BME280;30155;52.164;21.236;2023-05-19T23:17:21;101640.97;;;12.92;83.92
44453;BME280;30155;52.164;21.236;2023-05-19T23:22:14;101641.02;;;12.94;83.99
44453;BME280;30155;52.164;21.236;2023-05-19T23:27:07;101636.67;;;12.95;83.93
44453;BME280;30155;52.164;21.236;2023-05-19T23:32:00;101634.19;;;12.92;84.00
44453;BME280;30155;52.164;21.236;2023-05-19T23:36:53;101632.95;;;12.91;84.05
44453;BME280;30155;52.164;21.236;2023-05-19T23:41:46;101631.68;;;12.89;83.98
44453;BME280;30155;52.164;21.236;2023-05-19T23:46:39;101632.13;;;12.86;83.79
44453;BME280;30155;52.164;21.236;2023-05-19T23:51:32;101636.40;;;12.82;83.85
44453;BME280;30155;52.164;21.236;2023-05-19T23:56:25;101637.00;;;12.78;83.79
